createdAt,value
2023-05-10T00:06:37.465Z,17.70
2023-05-10T00:09:05.985Z,17.70
2023-05-10T00:11:35.081Z,17.70
2023-05-10T00:14:03.808Z,17.70
2023-05-10T00:16:34.243Z,17.60
2023-05-10T00:19:04.558Z,17.50
2023-05-10T00:21:34.927Z,17.40
2023-05-10T00:24:04.506Z,17.40
2023-05-10T00:26:33.219Z,17.40
2023-05-10T00:29:02.994Z,17.40
2023-05-10T00:31:33.275Z,17.40
2023-05-10T00:34:01.691Z,17.40
2023-05-10T00:36:30.844Z,17.50
2023-05-10T00:39:00.217Z,17.50
2023-05-10T00:41:29.222Z,17.40
2023-05-10T00:43:58.682Z,17.40
2023-05-10T00:46:27.842Z,17.40
2023-05-10T00:48:58.829Z,17.50
2023-05-10T00:51:27.428Z,17.50
2023-05-10T00:53:57.398Z,17.50
2023-05-10T00:56:27.224Z,17.50
2023-05-10T00:58:56.440Z,17.50
2023-05-10T01:01:25.426Z,17.50
2023-05-10T01:03:54.649Z,17.50
2023-05-10T01:06:26.687Z,17.60
2023-05-10T01:21:52.135Z,18.30
2023-05-10T01:24:58.980Z,18.30
2023-05-10T01:27:44.749Z,18.50
2023-05-10T01:30:51.897Z,18.60
2023-05-10T01:33:28.339Z,18.70
2023-05-10T01:36:05.004Z,18.80
2023-05-10T01:38:36.365Z,19.00
2023-05-10T01:41:14.327Z,19.10
2023-05-10T01:43:50.425Z,19.10
2023-05-10T01:46:24.063Z,19.10
2023-05-10T01:48:57.162Z,19.10
2023-05-10T01:51:27.397Z,19.10
2023-05-10T01:54:00.461Z,19.10
2023-05-10T01:56:32.192Z,19.10
2023-05-10T01:59:05.818Z,19.10
2023-05-10T02:01:35.021Z,19.00
2023-05-10T02:04:05.964Z,19.00
2023-05-10T02:06:36.090Z,19.10
2023-05-10T02:09:05.146Z,19.10
2023-05-10T02:11:34.179Z,19.00
2023-05-10T02:14:03.541Z,19.00
2023-05-10T02:16:32.316Z,19.10
2023-05-10T02:19:05.416Z,19.10
2023-05-10T02:21:36.549Z,19.20
2023-05-10T02:24:05.864Z,19.10
2023-05-10T03:01:09.272Z,19.00
2023-05-10T03:03:39.283Z,18.90
2023-05-10T03:06:07.744Z,18.90
2023-05-10T03:08:36.194Z,18.80
2023-05-10T03:11:27.742Z,18.70
2023-05-10T03:14:14.544Z,18.70
2023-05-10T03:16:48.300Z,18.80
2023-05-10T03:19:27.757Z,18.90
2023-05-10T03:22:00.875Z,18.90
2023-05-10T03:24:38.005Z,19.00
2023-05-10T04:11:43.330Z,18.60
2023-05-10T04:14:12.825Z,18.60
2023-05-10T04:16:42.009Z,18.60
2023-05-10T04:19:10.611Z,18.60
2023-05-10T04:21:39.157Z,18.50
2023-05-10T04:24:09.164Z,18.50
2023-05-10T04:26:38.387Z,18.50
2023-05-10T04:29:10.308Z,18.50
2023-05-10T04:31:38.805Z,18.60
2023-05-10T04:34:07.079Z,18.60
2023-05-10T04:36:37.000Z,18.60
2023-05-10T04:39:05.649Z,18.50
2023-05-10T04:41:33.873Z,18.40
2023-05-10T04:44:02.088Z,18.50
2023-05-10T04:54:50.488Z,18.40
2023-05-10T04:57:18.287Z,18.30
2023-05-10T04:59:47.167Z,18.30
2023-05-10T05:02:16.159Z,18.30
2023-05-10T05:04:44.192Z,18.30
2023-05-10T05:07:12.141Z,18.20
2023-05-10T05:09:40.213Z,18.10
2023-05-10T05:12:09.943Z,18.00
2023-05-10T05:14:37.951Z,18.20
2023-05-10T05:17:11.948Z,18.30
2023-05-10T05:19:40.017Z,18.30
2023-05-10T05:22:09.441Z,18.40
2023-05-10T05:24:40.482Z,18.50
2023-05-10T05:27:10.068Z,18.50
2023-05-10T05:29:38.124Z,18.40
2023-05-10T05:32:06.645Z,18.50
2023-05-10T05:34:34.873Z,18.50
2023-05-10T05:37:02.852Z,18.50
2023-05-10T05:39:30.851Z,18.30
2023-05-10T05:41:59.698Z,18.40
2023-05-10T05:44:30.090Z,18.40
2023-05-10T05:46:58.154Z,18.30
2023-05-10T05:49:26.245Z,18.40
2023-05-10T05:51:54.342Z,18.30
2023-05-10T05:54:22.810Z,18.40
2023-05-10T05:56:50.901Z,18.40
2023-05-10T05:59:18.831Z,18.50
2023-05-10T06:01:48.380Z,18.50
2023-05-10T06:04:16.580Z,18.50
2023-05-10T06:06:45.229Z,18.50
2023-05-10T06:09:13.542Z,18.60
2023-05-10T06:11:41.903Z,18.50
2023-05-10T06:14:10.629Z,18.50
2023-05-10T06:16:38.822Z,18.50
2023-05-10T06:19:08.431Z,18.50
2023-05-10T06:21:36.564Z,18.60
2023-05-10T06:24:05.012Z,18.70
2023-05-10T06:26:33.185Z,18.70
2023-05-10T06:29:01.179Z,18.70
2023-05-10T06:31:29.426Z,18.70
2023-05-10T06:33:57.397Z,18.80
2023-05-10T06:36:27.736Z,18.90
2023-05-10T06:38:56.141Z,18.90
2023-05-10T06:41:25.096Z,18.90
2023-05-10T06:43:53.171Z,19.00
2023-05-10T06:46:21.422Z,19.00
2023-05-10T06:48:49.540Z,19.00
2023-05-10T06:51:19.907Z,18.90
2023-05-10T06:53:49.444Z,19.00
2023-05-10T06:56:17.573Z,19.00
2023-05-10T06:58:45.664Z,19.00
2023-05-10T07:01:13.853Z,19.00
2023-05-10T07:03:41.993Z,19.10
2023-05-10T07:06:21.566Z,19.20
2023-05-10T07:08:59.682Z,19.30
2023-05-10T07:11:28.132Z,19.40
2023-05-10T07:13:56.382Z,19.30
2023-05-10T07:16:26.477Z,19.20
2023-05-10T07:18:54.958Z,19.20
2023-05-10T07:21:25.336Z,19.30
2023-05-10T07:23:53.635Z,19.30
2023-05-10T07:26:23.316Z,19.40
2023-05-10T07:28:51.733Z,19.30
2023-05-10T07:31:19.812Z,19.40
2023-05-10T07:33:48.098Z,19.50
2023-05-10T07:36:16.021Z,19.60
2023-05-10T07:38:44.163Z,19.70
2023-05-10T07:41:13.600Z,19.70
2023-05-10T07:43:43.300Z,19.70
2023-05-10T07:46:12.290Z,19.60
2023-05-10T07:48:40.602Z,19.70
2023-05-10T07:51:10.675Z,19.80
2023-05-10T07:53:39.796Z,19.80
2023-05-10T07:56:23.010Z,19.80
2023-05-10T07:58:53.246Z,19.70
2023-05-10T08:01:21.690Z,19.70
2023-05-10T08:03:50.219Z,19.70
2023-05-10T08:06:19.390Z,19.70
2023-05-10T08:08:50.595Z,19.70
2023-05-10T08:11:19.199Z,19.80
2023-05-10T08:13:47.466Z,19.80
2023-05-10T08:16:17.107Z,19.80
2023-05-10T08:18:46.366Z,19.90
2023-05-10T08:21:15.007Z,19.80
2023-05-10T08:23:45.185Z,19.80
2023-05-10T08:26:13.697Z,19.90
2023-05-10T08:28:41.683Z,19.80
2023-05-10T08:31:09.886Z,19.80
2023-05-10T08:33:39.632Z,19.80
2023-05-10T08:36:08.455Z,19.70
2023-05-10T08:38:36.724Z,19.60
2023-05-10T08:41:06.579Z,19.60
2023-05-10T08:43:37.302Z,19.60
2023-05-10T08:46:09.072Z,19.60
2023-05-10T08:48:39.208Z,19.60
2023-05-10T08:51:09.455Z,19.60
2023-05-10T08:53:40.730Z,19.60
2023-05-10T08:56:09.341Z,19.50
2023-05-10T08:58:38.082Z,19.50
2023-05-10T09:01:07.369Z,19.50
2023-05-10T09:03:35.568Z,19.50
2023-05-10T09:06:06.346Z,19.50
2023-05-10T09:08:34.904Z,19.40
2023-05-10T09:11:04.280Z,19.40
2023-05-10T09:13:33.320Z,19.50
2023-05-10T09:16:07.121Z,19.40
2023-05-10T09:18:48.472Z,19.40
2023-05-10T09:21:17.997Z,19.30
2023-05-10T09:23:48.225Z,19.40
2023-05-10T09:26:17.443Z,19.40
2023-05-10T09:28:55.701Z,19.40
2023-05-10T09:31:25.057Z,19.50
2023-05-10T09:33:53.608Z,19.40
2023-05-10T09:36:23.273Z,19.30
2023-05-10T09:38:53.079Z,19.30
2023-05-10T09:41:22.372Z,19.30
2023-05-10T09:43:51.037Z,19.30
2023-05-10T09:46:19.239Z,19.30
2023-05-10T09:48:48.850Z,19.30
2023-05-10T09:51:26.014Z,19.40
2023-05-10T09:54:11.893Z,19.40
2023-05-10T09:56:41.906Z,19.40
2023-05-10T09:59:13.857Z,19.40
2023-05-10T10:01:42.877Z,19.40
2023-05-10T10:04:11.797Z,19.40
2023-05-10T10:06:42.108Z,19.40
2023-05-10T10:09:10.579Z,19.30
2023-05-10T10:11:39.861Z,19.30
2023-05-10T10:14:08.084Z,19.30
2023-05-10T10:16:36.304Z,19.40
2023-05-10T10:19:04.584Z,19.50
2023-05-10T10:21:32.843Z,19.50
2023-05-10T10:24:03.231Z,19.50
2023-05-10T10:26:31.715Z,19.40
2023-05-10T10:29:12.143Z,19.40
2023-05-10T10:31:46.581Z,19.40
2023-05-10T10:34:27.474Z,19.40
2023-05-10T10:36:57.625Z,19.40
2023-05-10T10:39:27.872Z,19.40
2023-05-10T10:41:57.534Z,19.50
2023-05-10T10:44:27.758Z,19.50
2023-05-10T10:47:13.109Z,19.60
2023-05-10T10:49:46.192Z,19.40
2023-05-10T10:52:24.360Z,19.50
2023-05-10T10:54:58.557Z,19.50
2023-05-10T10:57:27.846Z,19.50
2023-05-10T11:00:23.007Z,19.60
2023-05-10T11:02:53.081Z,19.60
2023-05-10T11:05:46.175Z,19.70
2023-05-10T11:08:27.284Z,19.70
2023-05-10T11:11:10.552Z,19.60
2023-05-10T11:13:44.209Z,19.70
2023-05-10T11:16:15.535Z,19.70
2023-05-10T11:18:55.295Z,19.70
2023-05-10T11:21:24.189Z,19.70
2023-05-10T11:23:57.221Z,19.60
2023-05-10T11:26:31.727Z,19.40
2023-05-10T11:29:02.139Z,19.50
2023-05-10T11:31:31.001Z,19.40
2023-05-10T11:34:03.089Z,19.50
2023-05-10T11:36:35.134Z,19.50
2023-05-10T11:39:04.824Z,19.50
2023-05-10T11:41:34.507Z,19.50
2023-05-10T11:44:03.859Z,19.40
2023-05-10T11:46:32.247Z,19.30
2023-05-10T11:49:03.141Z,19.30
2023-05-10T11:51:34.266Z,19.20
2023-05-10T11:54:02.444Z,19.20
2023-05-10T11:56:30.573Z,19.30
2023-05-10T11:59:01.469Z,19.30
2023-05-10T12:01:29.923Z,19.20
2023-05-10T12:04:01.636Z,19.20
2023-05-10T12:06:32.486Z,19.20
2023-05-10T12:09:00.984Z,19.40
2023-05-10T12:11:30.131Z,19.40
2023-05-10T12:14:00.113Z,19.50
2023-05-10T12:16:30.959Z,19.50
2023-05-10T12:19:00.479Z,19.60
2023-05-10T12:21:31.810Z,19.60
2023-05-10T12:24:03.518Z,19.60
2023-05-10T12:26:32.255Z,19.60
2023-05-10T12:29:16.874Z,19.50
2023-05-10T12:31:53.039Z,19.50
2023-05-10T12:34:28.219Z,19.50
2023-05-10T12:36:57.060Z,19.50
2023-05-10T12:39:25.370Z,19.50
2023-05-10T12:41:53.974Z,19.40
2023-05-10T12:44:23.804Z,19.30
2023-05-10T12:46:51.901Z,19.20
2023-05-10T12:49:21.062Z,19.10
2023-05-10T12:51:49.186Z,19.10
2023-05-10T12:54:17.490Z,18.90
2023-05-10T12:56:45.701Z,18.90
2023-05-10T12:59:14.118Z,18.80
2023-05-10T13:01:43.816Z,18.70
2023-05-10T13:04:12.058Z,18.60
2023-05-10T13:06:40.135Z,18.60
2023-05-10T13:09:08.339Z,18.60
2023-05-10T13:11:36.454Z,18.50
2023-05-10T13:14:04.779Z,18.30
2023-05-10T13:16:32.926Z,18.30
2023-05-10T13:19:02.760Z,18.30
2023-05-10T13:21:31.720Z,18.30
2023-05-10T13:24:01.889Z,18.20
2023-05-10T13:26:30.310Z,18.10
2023-05-10T13:28:58.461Z,18.10
2023-05-10T13:31:26.925Z,18.00
2023-05-10T13:33:55.201Z,17.90
2023-05-10T13:36:25.348Z,17.90
2023-05-10T13:38:53.742Z,17.80
2023-05-10T13:41:22.113Z,17.60
2023-05-10T13:43:50.837Z,17.60
2023-05-10T13:46:18.969Z,17.70
2023-05-10T13:48:47.062Z,17.70
2023-05-10T13:51:15.186Z,17.70
2023-05-10T13:53:44.826Z,17.70
2023-05-10T13:56:13.596Z,17.70
2023-05-10T13:58:41.753Z,17.60
2023-05-10T14:01:09.819Z,17.80
2023-05-10T14:03:38.338Z,17.70
2023-05-10T14:06:08.714Z,17.70
2023-05-10T14:08:38.406Z,17.80
2023-05-10T14:11:08.008Z,17.70
2023-05-10T14:13:36.156Z,17.80
2023-05-10T14:16:04.479Z,17.70
2023-05-10T14:18:32.645Z,17.60
2023-05-10T14:21:00.784Z,17.70
2023-05-10T14:23:29.992Z,17.80
2023-05-10T14:25:58.048Z,17.90
2023-05-10T14:28:27.990Z,17.80
2023-05-10T14:30:56.385Z,18.00
2023-05-10T14:33:24.605Z,18.10
2023-05-10T14:35:52.816Z,18.00
2023-05-10T14:38:20.760Z,18.20
2023-05-10T14:40:48.887Z,18.30
2023-05-10T14:43:17.014Z,18.50
2023-05-10T14:45:46.897Z,18.50
2023-05-10T14:48:17.492Z,18.50
2023-05-10T14:50:47.308Z,18.50
2023-05-10T14:53:15.400Z,18.50
2023-05-10T14:55:43.621Z,18.50
2023-05-10T14:58:11.808Z,18.40
2023-05-10T15:00:39.922Z,18.30
2023-05-10T15:03:10.375Z,18.30
2023-05-10T15:05:39.051Z,18.20
2023-05-10T15:08:07.241Z,18.10
2023-05-10T15:10:35.599Z,18.20
2023-05-10T15:13:04.615Z,18.30
2023-05-10T15:15:32.972Z,18.40
2023-05-10T15:18:01.055Z,18.60
2023-05-10T15:20:30.717Z,18.90
2023-05-10T15:22:58.809Z,19.10
2023-05-10T15:25:27.295Z,19.50
2023-05-10T15:27:55.511Z,19.60
2023-05-10T15:30:24.026Z,19.70
2023-05-10T15:32:52.054Z,19.70
2023-05-10T15:35:20.299Z,19.50
2023-05-10T15:37:50.705Z,19.50
2023-05-10T15:40:18.954Z,19.40
2023-05-10T15:42:46.915Z,19.30
2023-05-10T15:45:16.643Z,19.20
2023-05-10T15:47:45.906Z,19.30
2023-05-10T15:50:14.279Z,19.20
2023-05-10T15:52:42.648Z,19.30
2023-05-10T15:55:15.640Z,19.10
2023-05-10T15:57:45.146Z,19.20
2023-05-10T16:00:14.412Z,19.30
2023-05-10T16:02:42.724Z,19.10
2023-05-10T16:05:11.375Z,19.10
2023-05-10T16:07:40.592Z,19.20
2023-05-10T16:10:12.140Z,19.30
2023-05-10T16:12:40.815Z,19.30
2023-05-10T16:15:10.035Z,19.40
2023-05-10T16:17:38.232Z,19.40
2023-05-10T16:20:07.720Z,19.30
2023-05-10T16:22:36.694Z,19.20
2023-05-10T16:25:05.631Z,19.10
2023-05-10T16:27:35.532Z,19.00
2023-05-10T16:30:03.917Z,19.00
2023-05-10T16:32:32.155Z,18.90
2023-05-10T16:35:00.747Z,18.90
2023-05-10T16:37:29.274Z,18.80
2023-05-10T16:39:58.003Z,18.80
2023-05-10T16:42:26.413Z,18.80
2023-05-10T16:44:56.688Z,18.80
2023-05-10T16:47:27.033Z,18.70
2023-05-10T16:49:55.297Z,18.70
2023-05-10T16:52:24.133Z,18.70
2023-05-10T16:54:54.710Z,18.60
2023-05-10T16:57:23.648Z,18.50
2023-05-10T16:59:55.310Z,18.50
2023-05-10T17:02:25.452Z,18.40
2023-05-10T17:04:55.618Z,18.40
2023-05-10T17:07:26.168Z,18.40
2023-05-10T17:09:55.048Z,18.30
2023-05-10T17:12:23.492Z,18.30
2023-05-10T17:14:52.233Z,18.20
2023-05-10T17:17:20.719Z,18.10
2023-05-10T17:19:50.801Z,18.10
2023-05-10T17:22:19.668Z,17.80
2023-05-10T17:24:48.199Z,17.70
2023-05-10T17:27:16.820Z,17.80
2023-05-10T17:29:45.336Z,17.80
2023-05-10T17:32:13.996Z,18.00
2023-05-10T17:34:42.770Z,18.10
2023-05-10T17:37:12.979Z,18.00
2023-05-10T17:39:41.636Z,18.30
2023-05-10T17:42:10.139Z,18.40
2023-05-10T17:44:38.900Z,18.20
2023-05-10T17:47:07.341Z,18.10
2023-05-10T17:49:35.999Z,18.00
2023-05-10T17:52:04.607Z,17.90
2023-05-10T17:54:35.115Z,17.80
2023-05-10T17:57:04.186Z,17.90
2023-05-10T17:59:32.816Z,17.90
2023-05-10T18:02:03.449Z,17.80
2023-05-10T18:04:31.981Z,17.70
2023-05-10T18:07:03.434Z,17.60
2023-05-10T18:09:32.330Z,17.50
2023-05-10T18:12:03.691Z,17.50
2023-05-10T18:14:40.446Z,17.40
2023-05-10T18:17:10.418Z,17.40
2023-05-10T18:19:39.070Z,17.50
2023-05-10T18:22:10.516Z,17.60
2023-05-10T18:24:40.294Z,17.60
2023-05-10T18:27:10.788Z,17.70
2023-05-10T18:29:39.846Z,17.60
2023-05-10T18:32:08.323Z,17.50
2023-05-10T18:34:37.038Z,17.50
2023-05-10T18:37:08.106Z,17.40
2023-05-10T18:39:38.220Z,17.50
2023-05-10T18:42:09.415Z,17.50
2023-05-10T18:44:38.077Z,17.40
2023-05-10T18:47:07.217Z,17.40
2023-05-10T18:49:35.942Z,17.20
2023-05-10T18:52:04.508Z,17.10
2023-05-10T18:54:33.247Z,17.00
2023-05-10T18:57:02.045Z,17.10
2023-05-10T18:59:32.693Z,17.10
2023-05-10T19:02:01.953Z,17.10
2023-05-10T19:04:30.906Z,17.00
2023-05-10T19:07:01.316Z,17.10
2023-05-10T19:09:29.936Z,17.20
2023-05-10T19:11:58.538Z,17.20
2023-05-10T19:14:27.176Z,17.10
2023-05-10T19:16:57.157Z,17.00
2023-05-10T19:19:26.733Z,17.00
2023-05-10T19:21:55.540Z,17.10
2023-05-10T19:24:26.178Z,17.10
2023-05-10T19:26:57.077Z,17.20
2023-05-10T19:29:25.874Z,17.10
2023-05-10T19:31:56.552Z,17.10
2023-05-10T19:34:25.386Z,17.20
2023-05-10T19:36:54.302Z,17.20
2023-05-10T19:39:23.185Z,17.20
2023-05-10T19:41:53.037Z,17.10
2023-05-10T19:44:22.824Z,17.00
2023-05-10T19:46:53.648Z,17.10
2023-05-10T19:49:26.224Z,16.90
2023-05-10T19:51:55.174Z,16.90
2023-05-10T19:54:24.012Z,16.70
2023-05-10T19:56:52.822Z,16.60
2023-05-10T19:59:21.454Z,16.70
2023-05-10T20:01:50.098Z,16.80
2023-05-10T20:04:18.720Z,16.90
2023-05-10T20:06:49.067Z,16.90
2023-05-10T20:09:17.817Z,16.70
2023-05-10T20:11:46.373Z,16.70
2023-05-10T20:14:17.048Z,16.80
2023-05-10T20:16:46.118Z,16.70
2023-05-10T20:19:15.371Z,16.60
2023-05-10T20:21:44.594Z,16.50
2023-05-10T20:24:15.095Z,16.40
2023-05-10T20:26:43.831Z,16.40
2023-05-10T20:29:13.608Z,16.40
2023-05-10T20:31:42.353Z,16.50
2023-05-10T20:34:11.200Z,16.50
2023-05-10T20:36:39.894Z,16.60
2023-05-10T20:39:09.783Z,16.60
2023-05-10T20:41:40.062Z,16.70
2023-05-10T20:44:08.805Z,16.70
2023-05-10T20:46:38.228Z,16.50
2023-05-10T20:49:07.016Z,16.50
2023-05-10T20:51:35.536Z,16.50
2023-05-10T20:54:04.734Z,16.40
2023-05-10T20:56:34.101Z,16.50
2023-05-10T20:59:03.861Z,16.30
2023-05-10T21:01:33.015Z,16.40
2023-05-10T21:04:01.359Z,16.40
2023-05-10T21:06:29.457Z,16.40
2023-05-10T21:08:57.830Z,16.50
2023-05-10T21:11:26.070Z,16.60
2023-05-10T21:13:54.313Z,16.80
2023-05-10T21:16:23.853Z,16.80
2023-05-10T21:18:52.390Z,16.70
2023-05-10T21:21:20.601Z,16.70
2023-05-10T21:23:48.936Z,16.70
2023-05-10T21:26:17.445Z,16.70
2023-05-10T21:28:46.441Z,16.70
2023-05-10T21:31:14.515Z,16.80
2023-05-10T21:33:44.282Z,16.70
2023-05-10T21:36:12.813Z,16.70
2023-05-10T21:38:42.674Z,16.70
2023-05-10T21:41:11.161Z,16.60
2023-05-10T21:43:39.291Z,16.60
2023-05-10T21:46:08.415Z,16.70
2023-05-10T21:48:36.436Z,16.70
2023-05-10T21:51:06.082Z,16.70
2023-05-10T21:53:34.509Z,16.70
2023-05-10T21:56:02.515Z,16.70
2023-05-10T21:58:30.683Z,16.60
2023-05-10T22:00:58.937Z,16.60
2023-05-10T22:03:27.367Z,16.50
2023-05-10T22:05:55.650Z,16.60
2023-05-10T22:08:26.054Z,16.60
2023-05-10T22:10:56.642Z,16.60
2023-05-10T22:13:26.590Z,16.50
2023-05-10T22:15:54.802Z,16.30
2023-05-10T22:18:23.320Z,16.10
2023-05-10T22:20:51.438Z,16.30
2023-05-10T22:23:19.595Z,16.40
2023-05-10T22:29:58.729Z,16.50
2023-05-10T22:32:32.057Z,16.50
2023-05-10T22:35:00.052Z,16.50
2023-05-10T22:37:27.862Z,16.60
2023-05-10T22:39:55.696Z,16.60
2023-05-10T22:42:23.472Z,16.70
2023-05-10T22:44:51.605Z,16.70
2023-05-10T22:47:20.818Z,16.60
2023-05-10T22:49:48.644Z,16.60
2023-05-10T22:52:16.451Z,16.70
2023-05-10T22:54:44.578Z,16.60
2023-05-10T22:57:12.366Z,16.60
2023-05-10T22:59:40.249Z,16.60
2023-05-10T23:02:09.574Z,16.70
2023-05-10T23:04:42.600Z,16.60
2023-05-10T23:07:15.384Z,16.50
2023-05-10T23:30:58.152Z,16.60
2023-05-10T23:33:27.222Z,16.50
2023-05-10T23:35:55.628Z,16.50
2023-05-10T23:38:24.033Z,16.50
2023-05-10T23:40:52.616Z,16.50
2023-05-10T23:43:21.979Z,16.50
2023-05-10T23:45:58.292Z,16.40
2023-05-10T23:48:26.113Z,16.40
2023-05-10T23:50:54.200Z,16.50
2023-05-10T23:53:22.213Z,16.50
